Time;durP1;ratioP1;P1;durP2;ratioP2;P2;SDS_P1;SDS_P2;PMS_P1;PMS_P2;Temp;Humidity;BMP_temperature;BMP_pressure;BME280_temperature;BME280_humidity;BME280_pressure;Samples;Min_cycle;Max_cycle;Signal;HPM_P1;HPM_P2
2022/11/15 00:01:44;;;;;;;35.55;16.35;;;;;;;8.04;100.00;100860.16;5012125;28;20119;-65
2022/11/15 00:04:11;;;;;;;31.63;14.88;;;;;;;8.05;100.00;100861.78;5009040;28;20081;-65
2022/11/15 00:06:37;;;;;;;25.10;13.68;;;;;;;8.12;100.00;100860.34;5012124;28;20526;-65
2022/11/15 00:09:04;;;;;;;28.52;14.38;;;;;;;8.14;100.00;100860.22;5010218;28;20060;-65
2022/11/15 00:11:30;;;;;;;27.73;14.27;;;;;;;8.18;100.00;100859.00;5021054;28;20089;-65
2022/11/15 00:13:57;;;;;;;26.85;14.63;;;;;;;8.19;100.00;100852.78;5018438;28;20761;-66
2022/11/15 00:16:24;;;;;;;25.75;14.23;;;;;;;8.15;100.00;100862.66;5017748;28;20053;-65
2022/11/15 00:18:51;;;;;;;24.15;14.88;;;;;;;8.14;100.00;100850.56;5020094;28;20053;-65
2022/11/15 00:21:17;;;;;;;26.35;14.75;;;;;;;8.21;100.00;100856.09;5020596;28;20056;-66
2022/11/15 00:23:44;;;;;;;29.40;14.75;;;;;;;8.15;100.00;100847.00;5032950;28;20142;-65
2022/11/15 00:26:12;;;;;;;28.95;15.52;;;;;;;8.25;100.00;100844.44;5022174;28;20045;-65
2022/11/15 00:28:39;;;;;;;28.83;14.55;;;;;;;8.26;100.00;100840.88;5018949;28;20426;-65
2022/11/15 00:31:13;;;;;;;29.95;14.45;;;;;;;8.28;100.00;100836.34;5005797;28;20060;-65
2022/11/15 00:33:43;;;;;;;24.13;14.63;;;;;;;8.30;100.00;100837.03;5016118;28;20146;-65
2022/11/15 00:36:10;;;;;;;27.65;14.85;;;;;;;8.19;100.00;100826.66;5025312;28;20132;-64
2022/11/15 00:38:39;;;;;;;29.65;15.57;;;;;;;8.24;100.00;100827.09;5018801;28;20053;-65
2022/11/15 00:41:06;;;;;;;27.08;14.38;;;;;;;8.25;100.00;100832.22;5021249;28;20795;-66
2022/11/15 00:43:35;;;;;;;27.98;14.52;;;;;;;8.23;100.00;100828.91;5013998;28;20049;-65
2022/11/15 00:46:02;;;;;;;24.85;14.52;;;;;;;8.27;100.00;100829.44;5034277;28;20071;-66
2022/11/15 00:48:29;;;;;;;25.30;14.57;;;;;;;8.35;100.00;100831.41;5033843;28;20053;-65
2022/11/15 00:50:55;;;;;;;28.35;14.80;;;;;;;8.28;100.00;100829.31;5026684;28;20052;-67
2022/11/15 00:53:21;;;;;;;24.77;13.80;;;;;;;8.27;100.00;100826.81;5015551;28;20054;-66
2022/11/15 00:55:48;;;;;;;27.63;16.35;;;;;;;8.27;100.00;100825.06;5011601;28;20052;-67
2022/11/15 00:58:14;;;;;;;28.10;14.35;;;;;;;8.27;100.00;100825.06;5023572;28;20093;-66
2022/11/15 01:00:41;;;;;;;23.60;12.38;;;;;;;8.32;100.00;100822.03;5021252;28;20821;-65
2022/11/15 01:03:07;;;;;;;27.27;14.65;;;;;;;8.35;100.00;100816.56;5018479;28;20062;-67
2022/11/15 01:05:37;;;;;;;24.50;14.82;;;;;;;8.44;100.00;100814.97;5024722;28;20052;-64
2022/11/15 01:08:03;;;;;;;33.50;15.40;;;;;;;8.36;100.00;100812.16;5015634;28;20104;-65
2022/11/15 01:10:30;;;;;;;27.67;15.45;;;;;;;8.39;100.00;100814.50;5023490;28;20483;-64
2022/11/15 01:12:57;;;;;;;31.33;15.73;;;;;;;8.41;100.00;100807.34;5016047;28;20557;-65
2022/11/15 01:15:23;;;;;;;30.98;15.40;;;;;;;8.45;100.00;100806.19;5027414;28;20486;-64
2022/11/15 01:17:49;;;;;;;24.60;14.90;;;;;;;8.46;100.00;100808.63;5018717;28;20049;-64
2022/11/15 01:20:16;;;;;;;21.15;13.85;;;;;;;8.46;100.00;100806.03;5015539;28;20194;-64
2022/11/15 01:22:42;;;;;;;29.52;14.27;;;;;;;8.45;100.00;100800.94;5021803;28;20053;-65
2022/11/15 01:25:09;;;;;;;24.83;14.05;;;;;;;8.44;100.00;100796.66;5015502;28;20108;-65
2022/11/15 01:27:35;;;;;;;25.33;14.18;;;;;;;8.56;100.00;100792.16;5025378;28;20049;-64
2022/11/15 01:30:02;;;;;;;22.65;13.45;;;;;;;8.59;100.00;100787.50;5011865;28;20053;-64
2022/11/15 01:32:28;;;;;;;26.70;14.65;;;;;;;8.66;100.00;100782.53;5020746;28;20669;-65
2022/11/15 01:34:54;;;;;;;30.42;15.93;;;;;;;8.65;100.00;100786.13;5033956;28;20049;-64
2022/11/15 01:37:21;;;;;;;25.42;15.07;;;;;;;8.70;100.00;100779.53;5018705;28;20081;-64
2022/11/15 01:39:47;;;;;;;23.10;13.30;;;;;;;8.74;100.00;100772.22;5023678;28;20065;-65
2022/11/15 01:42:14;;;;;;;22.63;13.02;;;;;;;8.74;100.00;100763.56;5018889;28;20060;-64
2022/11/15 01:44:47;;;;;;;25.60;15.20;;;;;;;8.76;100.00;100767.72;5012107;28;20046;-64
2022/11/15 01:47:16;;;;;;;22.30;13.57;;;;;;;8.73;100.00;100767.97;5020650;28;20053;-64
2022/11/15 01:49:48;;;;;;;;;;;;;;;8.84;100.00;100762.63;5020013;28;20052;-64
2022/11/15 01:52:18;;;;;;;23.23;12.23;;;;;;;8.86;100.00;100767.69;5035525;28;19932;-65
2022/11/15 01:54:47;;;;;;;19.48;13.05;;;;;;;8.86;100.00;100763.31;5004962;28;20453;-66
2022/11/15 01:57:13;;;;;;;27.08;15.40;;;;;;;8.85;100.00;100766.88;5027320;28;20636;-64
2022/11/15 01:59:43;;;;;;;22.67;13.85;;;;;;;8.95;100.00;100761.66;5015018;28;20056;-63
2022/11/15 02:02:09;;;;;;;21.50;13.65;;;;;;;8.97;100.00;100764.13;5012044;28;20054;-64
2022/11/15 02:04:41;;;;;;;25.33;14.45;;;;;;;9.02;100.00;100765.38;5020308;28;20050;-64
2022/11/15 02:07:10;;;;;;;22.60;13.75;;;;;;;9.06;100.00;100758.91;5011488;28;20048;-64
2022/11/15 02:09:38;;;;;;;23.73;13.18;;;;;;;9.10;100.00;100756.84;5011845;28;20373;-64
2022/11/15 02:12:08;;;;;;;23.13;14.38;;;;;;;9.15;100.00;100759.03;5014706;28;20544;-64
2022/11/15 02:14:37;;;;;;;23.83;13.73;;;;;;;9.17;100.00;100760.53;5021499;28;20390;-64
2022/11/15 02:17:16;;;;;;;22.80;14.35;;;;;;;9.27;100.00;100750.06;5018567;28;20046;-65
2022/11/15 02:19:51;;;;;;;;;;;;;;;9.28;100.00;100751.72;5026191;28;20053;-64
2022/11/15 02:22:36;;;;;;;23.80;14.90;;;;;;;9.30;100.00;100752.41;5021308;28;20365;-64
2022/11/15 02:25:42;;;;;;;23.48;14.02;;;;;;;9.34;100.00;100752.97;5012255;28;20506;-64
2022/11/15 02:28:37;;;;;;;20.30;13.98;;;;;;;9.33;100.00;100744.28;5018513;28;20056;-64
2022/11/15 02:31:22;;;;;;;18.60;13.10;;;;;;;9.38;100.00;100747.31;5017632;28;20053;-64
2022/11/15 02:34:13;;;;;;;23.13;13.63;;;;;;;9.37;100.00;100737.81;5022077;28;20050;-64
2022/11/15 02:36:42;;;;;;;21.05;13.35;;;;;;;9.43;100.00;100744.28;5013734;28;20061;-64
2022/11/15 02:39:21;;;;;;;21.33;13.38;;;;;;;9.45;100.00;100739.72;5017206;28;20083;-64
2022/11/15 02:41:56;;;;;;;18.58;13.27;;;;;;;9.44;100.00;100732.81;5014581;28;20045;-64
2022/11/15 02:44:32;;;;;;;19.15;13.48;;;;;;;9.49;100.00;100734.06;5020019;28;20054;-65
2022/11/15 02:47:13;;;;;;;20.65;13.88;;;;;;;9.54;100.00;100730.19;5021522;28;20921;-64
2022/11/15 02:49:49;;;;;;;16.10;11.55;;;;;;;9.61;100.00;100720.81;5023210;28;20056;-64
2022/11/15 02:52:21;;;;;;;20.90;12.75;;;;;;;9.60;100.00;100729.63;5008107;28;20812;-65
2022/11/15 02:54:55;;;;;;;16.60;11.27;;;;;;;9.61;100.00;100721.63;5030370;28;20044;-63
2022/11/15 02:58:04;;;;;;;19.63;13.35;;;;;;;9.68;100.00;100724.50;5029117;28;20061;-65
2022/11/15 03:00:47;;;;;;;18.20;12.00;;;;;;;9.70;100.00;100718.16;5024548;28;20085;-64
2022/11/15 03:03:57;;;;;;;18.85;12.07;;;;;;;9.73;100.00;100711.81;5023834;28;20089;-64
2022/11/15 03:06:32;;;;;;;21.17;13.25;;;;;;;9.74;100.00;100712.63;5014344;28;20058;-64
2022/11/15 03:09:04;;;;;;;20.75;12.38;;;;;;;9.70;100.00;100712.06;5034190;28;20049;-64
2022/11/15 03:11:38;;;;;;;20.85;13.52;;;;;;;9.69;100.00;100705.19;5017159;28;20108;-65
2022/11/15 03:14:24;;;;;;;21.27;13.65;;;;;;;9.68;100.00;100700.91;5019269;28;20581;-65
2022/11/15 03:17:15;;;;;;;16.67;10.95;;;;;;;9.78;100.00;100704.34;5027725;28;20048;-63
2022/11/15 03:19:46;;;;;;;23.00;13.82;;;;;;;9.72;100.00;100698.84;5026144;28;20049;-63
2022/11/15 03:22:22;;;;;;;22.55;13.27;;;;;;;9.80;100.00;100701.56;5012351;28;20515;-63
2022/11/15 03:24:54;;;;;;;19.45;12.90;;;;;;;9.82;100.00;100697.00;5030051;28;20501;-63
2022/11/15 03:27:25;;;;;;;20.92;14.23;;;;;;;9.83;100.00;100699.47;5027802;28;20048;-64
2022/11/15 03:29:59;;;;;;;23.50;14.57;;;;;;;9.85;100.00;100688.88;5021414;28;20044;-64
2022/11/15 03:32:29;;;;;;;23.33;14.13;;;;;;;9.89;100.00;100692.84;5027942;28;20052;-64
2022/11/15 03:35:02;;;;;;;18.10;13.55;;;;;;;9.88;100.00;100688.59;5018749;28;20465;-63
2022/11/15 03:37:35;;;;;;;21.58;13.65;;;;;;;9.92;100.00;100694.34;5020258;28;20053;-63
2022/11/15 03:40:04;;;;;;;24.77;14.40;;;;;;;9.93;100.00;100693.38;5024808;28;20084;-63
2022/11/15 03:42:36;;;;;;;21.10;13.65;;;;;;;9.95;100.00;100701.91;5021168;28;20053;-63
2022/11/15 03:45:13;;;;;;;21.75;14.18;;;;;;;9.97;100.00;100703.41;5015734;28;20049;-64
2022/11/15 03:47:46;;;;;;;20.20;12.43;;;;;;;10.00;100.00;100699.69;5008458;28;20049;-63
2022/11/15 03:50:16;;;;;;;20.48;12.55;;;;;;;10.03;100.00;100700.22;5018843;28;20064;-64
2022/11/15 03:52:46;;;;;;;20.15;13.20;;;;;;;10.06;100.00;100697.31;5027628;28;20049;-65
2022/11/15 03:55:17;;;;;;;19.83;13.95;;;;;;;10.09;100.00;100701.44;5028557;28;20453;-64
2022/11/15 03:57:44;;;;;;;25.20;14.65;;;;;;;10.06;100.00;100712.22;5020942;28;21417;-64
2022/11/15 04:00:11;;;;;;;25.35;14.68;;;;;;;10.09;100.00;100704.91;5030435;28;20494;-64
2022/11/15 04:02:37;;;;;;;23.58;14.88;;;;;;;10.10;100.00;100706.53;5031925;28;20049;-64
2022/11/15 04:05:04;;;;;;;22.25;15.18;;;;;;;10.14;100.00;100709.69;5012517;28;20838;-64
2022/11/15 04:07:30;;;;;;;22.48;14.25;;;;;;;10.21;100.00;100707.28;5018416;28;20141;-64
2022/11/15 04:10:03;;;;;;;22.98;14.77;;;;;;;10.24;100.00;100715.69;5012005;28;20062;-64
2022/11/15 04:12:34;;;;;;;23.77;15.38;;;;;;;10.29;100.00;100710.03;5016524;28;20121;-64
2022/11/15 04:15:07;;;;;;;26.67;16.35;;;;;;;10.38;100.00;100708.34;5022738;28;20064;-63
2022/11/15 04:17:35;;;;;;;24.35;15.55;;;;;;;10.40;100.00;100715.06;5013457;28;20100;-63
2022/11/15 04:25:45;;;;;;;26.08;16.23;;;;;;;10.55;100.00;100704.09;5020505;28;20085;-64
2022/11/15 04:28:11;;;;;;;23.23;15.25;;;;;;;10.56;100.00;100695.25;5016340;28;20077;-63
2022/11/15 04:30:38;;;;;;;21.63;14.38;;;;;;;10.60;100.00;100699.22;5019203;28;20054;-63
2022/11/15 04:33:04;;;;;;;21.05;14.90;;;;;;;10.62;100.00;100690.25;4997413;28;20834;-63
2022/11/15 04:35:31;;;;;;;22.33;14.98;;;;;;;10.63;100.00;100691.06;5021084;28;20041;-63
2022/11/15 04:37:58;;;;;;;22.83;15.05;;;;;;;10.65;100.00;100703.03;5025592;28;20045;-64
2022/11/15 04:40:25;;;;;;;24.75;15.32;;;;;;;10.66;100.00;100694.22;5010943;28;20049;-64
2022/11/15 04:42:51;;;;;;;22.92;14.07;;;;;;;10.68;100.00;100692.25;5026689;28;20061;-63
2022/11/15 04:45:18;;;;;;;18.73;14.35;;;;;;;10.71;100.00;100693.75;5002722;28;20057;-62
2022/11/15 04:47:45;;;;;;;20.27;14.02;;;;;;;10.72;100.00;100703.25;5012916;28;20057;-64
2022/11/15 04:50:13;;;;;;;23.10;14.52;;;;;;;10.74;100.00;100700.47;5014914;28;20498;-63
2022/11/15 04:52:50;;;;;;;20.58;13.93;;;;;;;10.75;100.00;100696.91;5020078;28;20056;-64
2022/11/15 04:55:16;;;;;;;21.02;13.52;;;;;;;10.71;100.00;100699.00;5016585;28;20050;-63
2022/11/15 04:57:43;;;;;;;21.08;12.50;;;;;;;10.74;100.00;100696.09;5012577;28;20048;-64
2022/11/15 05:00:12;;;;;;;14.57;11.20;;;;;;;10.78;100.00;100700.06;5017353;28;20116;-64
2022/11/15 05:05:24;;;;;;;22.67;13.40;;;;;;;10.75;100.00;100697.72;5013698;28;20501;-64
2022/11/15 05:07:50;;;;;;;17.15;12.18;;;;;;;10.71;100.00;100692.94;5008238;28;20049;-64
2022/11/15 05:10:17;;;;;;;18.38;11.70;;;;;;;10.75;100.00;100699.53;5026197;28;20063;-64
2022/11/15 05:12:43;;;;;;;19.17;12.85;;;;;;;10.69;100.00;100699.13;5023543;28;20435;-63
2022/11/15 05:15:10;;;;;;;22.85;12.73;;;;;;;10.70;100.00;100699.94;5013095;28;20068;-64
2022/11/15 05:17:36;;;;;;;21.20;12.82;;;;;;;10.72;100.00;100692.75;5021510;28;20081;-63
2022/11/15 05:20:03;;;;;;;19.98;13.77;;;;;;;10.70;100.00;100697.34;5021725;28;20464;-63
2022/11/15 05:22:29;;;;;;;22.35;13.10;;;;;;;10.71;100.00;100690.31;5018924;28;20061;-63
2022/11/15 05:24:55;;;;;;;19.65;13.75;;;;;;;10.70;100.00;100681.59;5014441;28;20103;-63
2022/11/15 05:27:22;;;;;;;19.55;12.98;;;;;;;10.71;100.00;100682.44;5012945;28;20054;-64
2022/11/15 05:29:48;;;;;;;22.63;13.82;;;;;;;10.70;100.00;100676.34;5022801;28;20499;-63
2022/11/15 05:32:16;;;;;;;20.75;13.77;;;;;;;10.72;100.00;100684.88;5023094;28;20911;-64
2022/11/15 05:34:43;;;;;;;22.15;13.55;;;;;;;10.71;100.00;100687.69;5032982;28;20049;-64
2022/11/15 05:37:10;;;;;;;25.13;14.95;;;;;;;10.74;100.00;100687.38;5009434;28;20045;-63
2022/11/15 05:39:36;;;;;;;22.98;14.00;;;;;;;10.75;100.00;100687.22;5012554;28;20053;-64
2022/11/15 05:42:14;;;;;;;22.17;13.60;;;;;;;10.80;100.00;100690.22;5027397;28;20509;-64
2022/11/15 05:44:47;;;;;;;21.87;14.43;;;;;;;10.84;100.00;100682.88;5020454;28;20636;-63
2022/11/15 05:47:22;;;;;;;24.38;14.13;;;;;;;10.86;100.00;100692.25;5018343;28;20694;-63
2022/11/15 05:49:52;;;;;;;23.48;14.35;;;;;;;10.86;100.00;100699.31;5017688;28;20059;-63
2022/11/15 05:52:22;;;;;;;21.45;12.95;;;;;;;10.88;100.00;100697.34;5018237;28;20057;-64
2022/11/15 05:54:49;;;;;;;19.40;12.80;;;;;;;10.90;100.00;100692.78;5015295;28;20058;-64
2022/11/15 05:57:16;;;;;;;19.52;11.15;;;;;;;10.94;100.00;100694.13;5014949;28;20061;-63
2022/11/15 05:59:43;;;;;;;22.27;13.70;;;;;;;10.92;100.00;100695.22;5020209;28;20125;-63
2022/11/15 06:02:11;;;;;;;21.30;14.30;;;;;;;10.93;100.00;100695.06;5005293;28;20421;-63
2022/11/15 06:04:37;;;;;;;22.07;14.00;;;;;;;10.91;100.00;100694.41;5009176;28;20064;-64
2022/11/15 06:07:04;;;;;;;23.90;14.82;;;;;;;10.94;100.00;100702.00;5004791;28;20536;-63
2022/11/15 06:09:30;;;;;;;21.80;13.40;;;;;;;10.87;100.00;100707.00;5019985;28;20045;-63
2022/11/15 06:11:56;;;;;;;18.10;10.90;;;;;;;10.95;100.00;100706.25;5010190;28;20092;-63
2022/11/15 06:14:23;;;;;;;22.25;13.25;;;;;;;10.93;100.00;100700.31;5026712;28;20103;-62
2022/11/15 06:16:49;;;;;;;25.73;14.48;;;;;;;10.92;100.00;100698.69;5015229;28;20057;-62
2022/11/15 06:19:16;;;;;;;18.35;12.90;;;;;;;11.00;100.00;100697.94;5004719;28;20081;-63
2022/11/15 06:21:42;;;;;;;22.80;13.63;;;;;;;10.97;100.00;100704.28;5005149;28;20103;-62
2022/11/15 06:24:09;;;;;;;20.35;13.93;;;;;;;11.02;100.00;100699.41;4994282;28;20529;-62
2022/11/15 06:26:35;;;;;;;19.35;13.15;;;;;;;11.01;100.00;100697.75;5012947;28;20107;-63
2022/11/15 06:29:03;;;;;;;15.88;11.07;;;;;;;11.05;100.00;100695.66;5007334;28;20413;-63
2022/11/15 06:31:30;;;;;;;22.90;12.98;;;;;;;10.99;100.00;100702.34;5028317;28;20089;-61
2022/11/15 06:33:56;;;;;;;19.92;12.98;;;;;;;10.98;100.00;100702.50;5028003;28;20045;-63
2022/11/15 06:36:23;;;;;;;20.55;12.88;;;;;;;10.98;100.00;100708.56;5014329;28;20044;-63
2022/11/15 06:38:49;;;;;;;19.15;12.88;;;;;;;11.00;100.00;100697.94;5006968;28;20049;-63
2022/11/15 06:41:16;;;;;;;21.27;13.60;;;;;;;10.97;100.00;100704.28;5013703;28;20057;-63
2022/11/15 06:43:43;;;;;;;23.50;14.02;;;;;;;10.99;100.00;100717.25;5013911;28;20639;-63
2022/11/15 06:46:09;;;;;;;16.15;11.95;;;;;;;10.95;100.00;100724.63;5010583;28;20049;-62
2022/11/15 06:48:36;;;;;;;17.73;13.20;;;;;;;10.98;100.00;100713.81;5005701;28;20077;-63
2022/11/15 06:51:04;;;;;;;19.70;12.88;;;;;;;11.03;100.00;100718.59;5018305;28;20472;-63
2022/11/15 06:53:31;;;;;;;21.35;14.25;;;;;;;11.05;100.00;100716.66;5011637;28;20786;-62
2022/11/15 06:56:00;;;;;;;;;;;;;;;11.08;100.00;100719.00;5014772;28;20041;-63
2022/11/15 06:58:27;;;;;;;17.10;11.35;;;;;;;11.09;100.00;100718.00;5009551;28;19937;-63
2022/11/15 07:00:57;;;;;;;22.95;13.07;;;;;;;11.10;100.00;100721.47;5016974;28;20805;-64
2022/11/15 07:03:24;;;;;;;18.30;14.40;;;;;;;11.09;100.00;100723.25;5014283;28;20107;-63
2022/11/15 07:05:53;;;;;;;19.60;13.40;;;;;;;11.13;100.00;100721.97;5014614;28;20053;-63
2022/11/15 07:08:20;;;;;;;17.80;13.57;;;;;;;11.15;100.00;100725.25;5013989;28;20054;-63
2022/11/15 07:10:47;;;;;;;21.48;12.68;;;;;;;11.12;100.00;100728.22;5022343;28;20053;-63
2022/11/15 07:13:13;;;;;;;23.27;13.80;;;;;;;11.13;100.00;100731.66;5016423;28;20061;-62
2022/11/15 07:15:40;;;;;;;24.80;14.88;;;;;;;11.05;100.00;100730.63;4997495;28;20045;-62
2022/11/15 07:18:06;;;;;;;23.15;14.80;;;;;;;11.07;100.00;100728.69;5005939;28;20042;-63
2022/11/15 07:20:32;;;;;;;18.77;14.23;;;;;;;11.06;100.00;100734.06;5014269;28;20065;-62
2022/11/15 07:23:01;;;;;;;20.30;12.43;;;;;;;11.02;100.00;100736.16;5008608;28;20049;-62
2022/11/15 07:25:28;;;;;;;19.42;13.52;;;;;;;11.00;100.00;100734.69;5020704;28;20557;-62
2022/11/15 07:27:59;;;;;;;16.95;11.57;;;;;;;11.08;100.00;100742.63;5013290;28;20054;-62
2022/11/15 07:30:26;;;;;;;20.55;12.98;;;;;;;11.01;100.00;100742.38;5011750;28;20103;-63
2022/11/15 07:32:57;;;;;;;21.85;12.90;;;;;;;11.02;100.00;100741.41;5011904;28;20088;-62
2022/11/15 07:35:26;;;;;;;21.70;12.48;;;;;;;11.03;100.00;100748.31;5024025;28;20096;-62
2022/11/15 07:38:00;;;;;;;20.73;12.20;;;;;;;11.03;100.00;100753.56;5025565;28;20072;-62
2022/11/15 07:40:29;;;;;;;17.92;12.13;;;;;;;11.04;100.00;100757.03;5011517;28;20925;-63
2022/11/15 07:43:04;;;;;;;18.70;11.43;;;;;;;11.08;100.00;100751.31;5022057;28;20050;-63
2022/11/15 07:45:33;;;;;;;17.20;11.40;;;;;;;11.04;100.00;100754.41;5014180;28;20123;-62
2022/11/15 07:48:00;;;;;;;19.30;11.18;;;;;;;11.07;100.00;100743.56;5035089;28;20057;-62
2022/11/15 07:50:29;;;;;;;16.17;9.85;;;;;;;11.10;100.00;100747.72;5015102;28;20104;-63
2022/11/15 07:52:58;;;;;;;19.27;10.90;;;;;;;11.12;100.00;100748.41;5034654;28;20509;-63
2022/11/15 07:55:27;;;;;;;14.77;10.65;;;;;;;11.13;100.00;100745.59;5010968;28;20702;-62
2022/11/15 07:57:59;;;;;;;15.25;10.55;;;;;;;11.13;100.00;100752.66;5013927;28;20068;-63
2022/11/15 08:00:25;;;;;;;15.25;10.48;;;;;;;11.12;100.00;100748.41;5013676;28;20500;-63
2022/11/15 08:02:52;;;;;;;15.52;10.63;;;;;;;11.16;100.00;100750.56;5016555;28;20057;-62
2022/11/15 08:05:18;;;;;;;15.35;9.18;;;;;;;11.17;100.00;100744.34;5021907;28;20050;-62
2022/11/15 08:07:45;;;;;;;16.08;11.35;;;;;;;11.15;100.00;100751.50;5014620;28;20793;-61
2022/11/15 08:10:11;;;;;;;14.75;10.00;;;;;;;11.15;100.00;100748.06;5021289;28;20107;-62
2022/11/15 08:12:38;;;;;;;17.13;11.55;;;;;;;11.15;100.00;100755.94;5013789;28;20088;-61
2022/11/15 08:15:05;;;;;;;14.20;10.25;;;;;;;11.18;100.00;100748.59;5021676;28;20478;-61
2022/11/15 08:17:32;;;;;;;16.67;10.80;;;;;;;11.21;100.00;100735.19;5029433;28;20157;-62
2022/11/15 08:19:59;;;;;;;15.50;10.00;;;;;;;11.24;100.00;100742.72;5015303;28;20079;-62
2022/11/15 08:22:25;;;;;;;17.45;9.43;;;;;;;11.31;100.00;100737.72;5018016;28;20049;-62
2022/11/15 08:24:51;;;;;;;18.10;10.90;;;;;;;11.32;100.00;100738.53;5009513;28;20256;-62
2022/11/15 08:27:18;;;;;;;18.85;11.60;;;;;;;11.36;100.00;100747.75;5022383;28;20053;-62
2022/11/15 08:29:44;;;;;;;16.98;11.88;;;;;;;11.40;100.00;100739.41;5022468;28;20053;-62
2022/11/15 08:32:11;;;;;;;13.32;10.02;;;;;;;11.40;100.00;100728.91;5011621;28;20808;-62
2022/11/15 08:34:38;;;;;;;18.77;10.77;;;;;;;11.49;100.00;100727.16;5029701;28;20486;-62
2022/11/15 08:37:05;;;;;;;16.08;10.18;;;;;;;11.51;100.00;100729.63;5019745;28;20049;-62
2022/11/15 08:39:31;;;;;;;13.73;10.23;;;;;;;11.53;100.00;100730.31;5022418;28;20079;-62
2022/11/15 08:41:58;;;;;;;17.70;11.10;;;;;;;11.58;100.00;100741.16;5005905;28;20642;-61
2022/11/15 08:44:24;;;;;;;14.98;10.98;;;;;;;11.64;100.00;100740.53;5022005;28;20058;-62
2022/11/15 08:46:51;;;;;;;18.10;10.77;;;;;;;11.60;100.00;100745.28;5023334;28;20057;-60
2022/11/15 08:49:17;;;;;;;16.42;10.25;;;;;;;11.66;100.00;100739.41;5015320;28;20049;-62
2022/11/15 08:51:43;;;;;;;18.73;11.32;;;;;;;11.60;100.00;100733.94;5030962;28;20041;-62
2022/11/15 08:54:10;;;;;;;19.55;11.25;;;;;;;11.62;100.00;100738.09;5016051;28;20489;-62
2022/11/15 08:56:36;;;;;;;18.73;10.20;;;;;;;11.66;100.00;100741.19;5017101;28;20057;-62
2022/11/15 08:59:02;;;;;;;22.70;10.70;;;;;;;11.68;100.00;100747.13;5028496;28;20104;-63
2022/11/15 09:01:29;;;;;;;15.35;9.60;;;;;;;11.70;100.00;100745.16;5017200;28;20592;-63
2022/11/15 09:03:56;;;;;;;14.70;9.20;;;;;;;11.81;100.00;100744.09;5018660;28;20054;-62
2022/11/15 09:06:22;;;;;;;13.90;8.80;;;;;;;11.78;100.00;100741.75;5018239;28;20054;-62
2022/11/15 09:08:49;;;;;;;11.55;7.90;;;;;;;11.73;100.00;100742.25;5015029;28;20056;-62
2022/11/15 09:11:17;;;;;;;12.13;8.13;;;;;;;11.76;100.00;100726.16;5013485;28;20049;-63
2022/11/15 09:13:44;;;;;;;12.50;8.40;;;;;;;11.73;100.00;100729.09;5025971;28;20619;-64
2022/11/15 09:16:12;;;;;;;15.57;9.48;;;;;;;11.66;100.00;100734.16;5030789;28;20049;-63
2022/11/15 09:18:38;;;;;;;11.40;7.28;;;;;;;11.73;100.00;100736.97;5018569;28;20049;-63
2022/11/15 09:21:05;;;;;;;14.50;7.47;;;;;;;11.72;100.00;100724.84;5016800;28;20057;-62
2022/11/15 09:23:31;;;;;;;10.75;8.15;;;;;;;11.73;100.00;100723.03;5010649;28;20046;-68
2022/11/15 09:26:02;;;;;;;12.85;7.43;;;;;;;11.82;100.00;100725.53;5018695;28;20049;-64
2022/11/15 09:28:30;;;;;;;11.43;7.82;;;;;;;11.78;100.00;100716.31;5017907;28;20099;-62
2022/11/15 09:31:14;;;;;;;13.82;7.85;;;;;;;11.77;100.00;100719.09;5014102;28;20053;-62
2022/11/15 09:33:47;;;;;;;15.95;7.15;;;;;;;11.82;100.00;100709.78;5022032;28;20053;-62
2022/11/15 09:36:13;;;;;;;13.02;7.55;;;;;;;11.86;100.00;100707.66;5011005;28;20053;-62
2022/11/15 09:38:40;;;;;;;13.18;8.23;;;;;;;11.82;100.00;100707.16;5026536;28;20092;-62
2022/11/15 09:41:12;;;;;;;13.65;7.65;;;;;;;11.90;100.00;100702.91;5018190;28;20555;-62
2022/11/15 09:44:21;;;;;;;9.70;6.80;;;;;;;11.91;100.00;100702.75;5024089;28;20093;-62
2022/11/15 09:46:57;;;;;;;11.88;6.80;;;;;;;11.85;100.00;100700.75;5022838;28;20049;-62
2022/11/15 09:49:24;;;;;;;13.68;7.20;;;;;;;11.90;100.00;100697.66;5030595;28;20056;-64
2022/11/15 09:51:53;;;;;;;10.73;7.07;;;;;;;11.98;100.00;100693.28;5014475;28;20399;-63
2022/11/15 09:54:30;;;;;;;11.25;7.80;;;;;;;11.97;100.00;100703.94;5016907;28;20109;-62
2022/11/15 09:57:37;;;;;;;11.40;6.72;;;;;;;11.95;100.00;100701.47;5019642;28;20084;-63
2022/11/15 10:00:13;;;;;;;10.80;7.20;;;;;;;12.00;100.00;100699.19;5005540;28;20049;-63
2022/11/15 10:03:21;;;;;;;12.10;6.78;;;;;;;11.99;100.00;100689.66;5015958;28;20144;-63
2022/11/15 10:05:50;;;;;;;10.18;7.28;;;;;;;12.10;100.00;100675.41;5011441;28;20057;-62
2022/11/15 10:08:16;;;;;;;;;;;;;;;12.17;100.00;100672.94;5013067;28;20107;-63
2022/11/15 10:10:49;;;;;;;8.40;6.07;;;;;;;12.21;100.00;100677.75;5003293;28;19988;-63
2022/11/15 10:13:40;;;;;;;10.60;6.07;;;;;;;12.26;100.00;100672.81;5019694;28;20140;-63
2022/11/15 10:16:35;;;;;;;8.60;5.05;;;;;;;12.15;100.00;100670.50;5017883;28;20053;-62
2022/11/15 10:19:16;;;;;;;9.00;5.85;;;;;;;12.31;100.00;100669.72;5018876;28;20058;-63
2022/11/15 10:21:54;;;;;;;7.13;5.05;;;;;;;12.26;100.00;100662.28;5000084;28;20486;-64
2022/11/15 10:24:30;;;;;;;9.43;5.95;;;;;;;12.36;100.00;100649.00;5022656;28;20053;-62
2022/11/15 10:26:57;;;;;;;10.27;5.05;;;;;;;12.14;100.00;100658.31;5015624;28;20046;-63
2022/11/15 10:29:24;;;;;;;7.55;4.30;;;;;;;12.10;100.00;100664.88;5026843;28;20049;-63
2022/11/15 10:31:52;;;;;;;8.23;4.43;;;;;;;12.02;100.00;100670.13;5014688;28;20064;-63
2022/11/15 10:34:21;;;;;;;6.88;3.90;;;;;;;12.04;100.00;100666.34;5018729;28;20053;-62
2022/11/15 10:36:59;;;;;;;5.93;3.35;;;;;;;12.13;100.00;100664.56;5012885;28;20049;-63
2022/11/15 10:39:25;;;;;;;7.53;3.30;;;;;;;12.03;100.00;100654.16;5002046;28;20057;-63
2022/11/15 10:42:29;;;;;;;4.68;3.33;;;;;;;12.06;100.00;100650.41;5019131;28;20172;-63
2022/11/15 10:44:55;;;;;;;5.63;2.92;;;;;;;12.04;100.00;100645.31;5008898;28;20103;-63
2022/11/15 10:47:30;;;;;;;5.65;3.20;;;;;;;12.10;100.00;100641.22;5016984;28;20495;-64
2022/11/15 10:50:26;;;;;;;4.93;2.70;;;;;;;12.23;100.00;100628.44;5024478;28;20054;-63
2022/11/15 10:52:53;;;;;;;5.55;2.95;;;;;;;12.28;100.00;100620.06;5017017;28;20063;-63
2022/11/15 10:55:27;;;;;;;5.47;2.15;;;;;;;12.26;100.00;100604.44;5018635;28;20053;-63
2022/11/15 10:58:05;;;;;;;7.32;2.50;;;;;;;12.32;100.00;100604.78;5011635;28;20049;-63
2022/11/15 11:00:35;;;;;;;4.93;2.53;;;;;;;12.38;100.00;100607.56;5025141;28;20050;-63
2022/11/15 11:03:06;;;;;;;5.82;2.42;;;;;;;12.49;100.00;100614.31;5023669;28;20118;-63
2022/11/15 11:05:38;;;;;;;4.47;2.13;;;;;;;12.48;100.00;100617.94;5035317;28;20045;-63
2022/11/15 11:08:11;;;;;;;7.53;2.17;;;;;;;12.40;100.00;100616.13;5009176;28;20057;-63
2022/11/15 11:10:37;;;;;;;4.90;2.50;;;;;;;12.39;100.00;100614.50;5024956;28;20057;-63
2022/11/15 11:13:25;;;;;;;5.20;2.20;;;;;;;12.45;100.00;100610.38;5009256;28;20057;-63
2022/11/15 11:16:19;;;;;;;2.88;1.95;;;;;;;12.51;100.00;100608.91;5023441;28;20089;-63
2022/11/15 11:18:59;;;;;;;3.47;2.15;;;;;;;12.67;100.00;100595.75;5019450;28;20462;-63
2022/11/15 11:21:31;;;;;;;3.33;1.60;;;;;;;12.75;100.00;100602.81;5023454;28;20107;-63
2022/11/15 11:24:26;;;;;;;4.28;1.60;;;;;;;12.95;100.00;100590.09;5015854;28;20217;-63
2022/11/15 11:27:20;;;;;;;2.67;1.70;;;;;;;12.99;100.00;100596.69;5027114;28;20044;-63
2022/11/15 11:29:49;;;;;;;7.88;2.15;;;;;;;12.96;100.00;100597.03;5021001;28;20049;-63
2022/11/15 11:32:36;;;;;;;6.88;1.95;;;;;;;13.01;100.00;100598.16;5023907;28;20111;-63